Gamco Investors Inc-A (GBL) Latest Bloomsberg Price


Mffais Ranking #1388 Overall / #6 Industry
Industry: Investment Management

Number of Companies: 51 (Ranking #2273 Overall/#18 Industry)
Inflow: $ 2,494 (K) (Ranking #2376 Overall/#18 Industry)
Outflow: $ -3,411 (K)
Mffais Flow: $ -916 (K) (Ranking #1388 Overall/#6 Industry)


Receive a FREE weekly executive review of stocks moving into the top 10, taking the top industy spot or moving up within their industry. Sent directly to your Inbox every Saturday. Sign up today and get last week's review immediately sent to you.

We value and respect your privacy. Please read our Terms and Conditions which states our firm commitment to your privacy. Your email address will not be shared with a third party, nor will it be sold or used for purposes other than subscription for the weekly review.

Owner CPOR Shares Action Qty Chg Invested (K) Total Current Value (K)
Panagora Asset Management Inc 2016-09-30 21,029 Added More 11,965 $ 420 $ 739
Martingale Asset Management L P 2016-09-30 11,044 New Holding 11,044 $ 388 $ 388
Gsa Capital Partners Llp 2016-09-30 61,100 Added More 10,508 $ 369 $ 2,148
Teachers Advisors Inc 2016-09-30 18,529 Added More 9,111 $ 320 $ 651
Dimensional Fund Advisors Lp 2016-09-30 125,950 Added More 8,290 $ 291 $ 4,429
Rice Hall James Associates Llc 2016-09-30 62,774 Added More 7,181 $ 252 $ 2,207
Horizon Kinetics Llc 2016-09-30 47,839 Added More 3,910 $ 137 $ 1,682
Hillsdale Investment Management Inc 2016-09-30 13,400 Added More 3,300 $ 116 $ 471
Northern Trust Corp 2016-09-30 60,801 Added More 2,765 $ 97 $ 2,138
Menta Capital Llc 2016-09-30 9,634 Added More 1,100 $ 38 $ 338
Capital Guardian Trust Co 2016-09-30 550 New Holding 550 $ 19 $ 19
Tower Research Capital Llc Trc 2016-09-30 752 Added More 450 $ 15 $ 26
New York State Teachers Retirement System 2016-09-30 400 New Holding 400 $ 14 $ 14
Duncker Streett Co Inc 2016-09-30 350 New Holding 350 $ 12 $ 12
American International Group Inc 2016-09-30 2,529 Added More 3 $ 0 $ 88
Swiss National Bank 2016-09-30 8,543 No Change 0 $ 0 $ 300
Us Bancorp De 2016-09-30 8,250 No Change 0 $ 0 $ 290
Legal General Group Plc 2016-09-30 1,137 No Change 0 $ 0 $ 39
New York State Common Retirement Fund 2016-09-30 7,899 No Change 0 $ 0 $ 277
Royce Associates Lp 2016-09-30 272,356 No Change 0 $ 0 $ 9,578
Gabelli Securities Inc 2016-09-30 4,393,055 No Change 0 $ 0 $ 154,503
Nisa Investment Advisors Llc 2016-09-30 3,300 No Change 0 $ 0 $ 116
Community Trust Investment Co 2016-09-30 10,950 No Change 0 $ 0 $ 385
Icon Advisers Inc Co 2016-09-30 13,100 No Change 0 $ 0 $ 460
Beach Investment Counsel Inc Pa 2016-09-30 11,888 No Change 0 $ 0 $ 418
California State Teachers Retirement System 2016-09-30 9,200 No Change 0 $ 0 $ 323
Nationwide Fund Advisors 2016-09-30 3,108 No Change 0 $ 0 $ 109
S Muoio Co Llc 2016-09-30 51,444 No Change 0 $ 0 $ 1,809
Denali Advisors Llc 2016-09-30 94 No Change 0 $ 0 $ 3
Guinness Asset Management Ltd 2016-09-30 3,000 No Change 0 $ 0 $ 105
Wfg Advisors Lp 2016-09-30 75 No Change 0 $ 0 $ 2
Ftb Advisors Inc 2016-09-30 149 No Change 0 $ 0 $ 5
Advisor Group Inc 2016-09-30 41 No Change 0 $ 0 $ 1
Pnc Financial Services Group Inc 2016-09-30 974 Sold Some -37 $ -1 $ 34
Rhumbline Advisers 2016-09-30 7,718 Sold Some -90 $ -3 $ 271
Bridgeway Capital Management Inc 2016-09-30 10,000 Sold Some -100 $ -3 $ 351
Blackrock Inc 2016-09-30 1,725 Sold Some -200 $ -7 $ 60
Blackrock Investment Management Llc 2016-09-30 21,173 Sold Some -271 $ -9 $ 744
Fifth Third Bancorp 2016-09-30 0 Sold All -400 $ -14 $ 0
Walleye Trading Llc 2016-09-30 700 Sold Some -500 $ -17 $ 24
Teacher Retirement System Of Texas 2016-09-30 0 Sold All -640 $ -22 $ 0
Acrospire Investment Management Llc 2016-09-30 894 Sold Some -904 $ -31 $ 31
Strs Ohio 2016-09-30 274 Sold Some -1,126 $ -39 $ 9
Oshaughnessy Asset Management Llc 2016-09-30 7,596 Sold Some -1,383 $ -48 $ 267
First Quadrant L P Ca 2016-09-30 6,600 Sold Some -2,800 $ -98 $ 232
Mackenzie Financial Corp 2016-09-30 0 Sold All -6,107 $ -214 $ 0
Emerald Acquisition Ltd 2016-09-30 7,201 Sold Some -7,201 $ -253 $ 253
Barr E S Co 2016-09-30 454,716 Sold Some -11,078 $ -389 $ 15,992
Highbridge Capital Management Llc 2016-09-30 0 Sold All -11,885 $ -417 $ 0
Globeflex Capital L P 2016-09-30 0 Sold All -20,939 $ -736 $ 0
Zacks Investment Management 2016-09-30 35,379 Sold Some -31,328 $ -1,101 $ 1,244